Time;durP1;ratioP1;P1;durP2;ratioP2;P2;SDS_P1;SDS_P2;PMS_P1;PMS_P2;Temp;Humidity;BMP_temperature;BMP_pressure;BME280_temperature;BME280_humidity;BME280_pressure;Samples;Min_cycle;Max_cycle;Signal;HPM_P1;HPM_P2
2022/12/02 00:01:23;;;;;;;51.50;30.50;;;3.00;1.00;;;;;;6257361;22;20219;-83
2022/12/02 00:03:51;;;;;;;44.20;27.52;;;3.00;1.00;;;;;;6261925;22;20194;-84
2022/12/02 00:06:28;;;;;;;44.90;28.98;;;3.00;1.00;;;;;;6258934;22;20212;-84
2022/12/02 00:09:03;;;;;;;48.28;30.58;;;3.10;1.00;;;;;;6257124;22;20264;-81
2022/12/02 00:11:31;;;;;;;43.53;27.85;;;3.10;1.00;;;;;;6232877;22;20572;-79
2022/12/02 00:14:14;;;;;;;46.05;29.48;;;3.00;1.00;;;;;;6257990;22;20225;-79
2022/12/02 00:16:43;;;;;;;48.55;29.88;;;3.00;1.00;;;;;;6260445;22;20265;-85
2022/12/02 00:19:10;;;;;;;49.45;30.75;;;3.00;1.00;;;;;;6259252;22;20219;-84
2022/12/02 00:21:41;;;;;;;46.20;28.75;;;3.00;1.00;;;;;;6261427;22;20244;-82
2022/12/02 00:24:08;;;;;;;45.03;29.73;;;2.90;1.00;;;;;;6259036;22;20685;-80
2022/12/02 00:26:41;;;;;;;47.10;30.35;;;2.90;1.00;;;;;;6259938;22;20218;-77
2022/12/02 00:29:07;;;;;;;44.20;28.13;;;3.00;1.00;;;;;;6232652;22;20678;-82
2022/12/02 00:31:36;;;;;;;44.10;28.63;;;2.90;1.00;;;;;;6261359;22;20219;-83
2022/12/02 00:34:05;;;;;;;48.20;29.73;;;2.90;1.00;;;;;;6257955;22;20799;-83
2022/12/02 00:36:32;;;;;;;47.28;28.42;;;2.90;1.00;;;;;;6259111;22;20219;-83
2022/12/02 00:39:01;;;;;;;43.85;30.05;;;2.90;1.00;;;;;;6259751;22;20209;-83
2022/12/02 00:41:29;;;;;;;47.90;30.40;;;2.90;1.00;;;;;;6257422;22;20219;-82
2022/12/02 00:46:41;;;;;;;48.08;28.98;;;2.90;1.00;;;;;;6258684;22;20215;-83
2022/12/02 00:49:12;;;;;;;45.35;29.60;;;2.90;1.00;;;;;;6258934;22;20972;-84
2022/12/02 00:51:43;;;;;;;46.55;29.30;;;2.90;1.00;;;;;;6260162;22;20216;-83
2022/12/02 00:54:13;;;;;;;47.30;29.75;;;2.90;1.00;;;;;;6260604;22;20218;-83
2022/12/02 00:56:44;;;;;;;44.95;30.42;;;3.00;1.00;;;;;;6258464;22;20209;-82
2022/12/02 00:59:11;;;;;;;45.97;28.90;;;3.00;1.00;;;;;;6259968;22;20214;-84
2022/12/02 01:01:43;;;;;;;48.60;29.27;;;3.00;1.00;;;;;;6258759;22;20195;-82
2022/12/02 01:04:12;;;;;;;47.45;30.23;;;2.90;1.00;;;;;;6258007;22;20689;-85
2022/12/02 01:06:45;;;;;;;46.35;30.10;;;2.90;1.00;;;;;;6260561;22;20269;-83
2022/12/02 01:09:12;;;;;;;45.97;30.42;;;2.90;1.00;;;;;;6255752;22;20217;-77
2022/12/02 01:11:42;;;;;;;45.13;28.77;;;2.90;1.00;;;;;;6257738;22;20200;-76
2022/12/02 01:14:08;;;;;;;44.95;31.17;;;2.90;1.00;;;;;;6256044;22;20211;-77
2022/12/02 01:16:40;;;;;;;47.15;29.88;;;3.00;1.00;;;;;;6256866;22;20985;-82
2022/12/02 01:19:07;;;;;;;47.83;30.80;;;3.10;1.00;;;;;;6259586;22;20212;-83
2022/12/02 01:21:40;;;;;;;50.33;30.90;;;3.10;1.00;;;;;;6257056;22;20238;-77
2022/12/02 01:24:08;;;;;;;46.33;29.90;;;3.10;1.00;;;;;;6255339;22;20279;-78
2022/12/02 01:26:36;;;;;;;45.03;29.77;;;3.10;1.00;;;;;;6257322;22;20288;-78
2022/12/02 01:29:06;;;;;;;45.08;29.98;;;3.10;1.00;;;;;;6256569;22;20214;-79
2022/12/02 01:31:33;;;;;;;53.38;31.50;;;3.10;1.00;;;;;;6258738;22;20217;-84
2022/12/02 01:34:02;;;;;;;45.35;29.55;;;3.10;1.00;;;;;;6260376;22;20207;-78
2022/12/02 01:36:29;;;;;;;46.55;29.63;;;3.10;1.00;;;;;;6259519;22;20214;-83
2022/12/02 01:39:05;;;;;;;47.63;29.60;;;3.10;1.00;;;;;;6261931;22;20213;-83
2022/12/02 01:41:32;;;;;;;45.03;29.02;;;3.20;1.00;;;;;;6261977;22;20222;-85
2022/12/02 01:44:01;;;;;;;48.05;29.50;;;3.30;1.00;;;;;;6261377;22;20192;-84
2022/12/02 01:46:28;;;;;;;44.13;30.13;;;3.20;1.00;;;;;;6260877;22;20296;-85
2022/12/02 01:49:02;;;;;;;43.08;29.20;;;3.20;1.00;;;;;;6256267;22;20218;-77
2022/12/02 01:51:29;;;;;;;47.67;29.98;;;3.30;1.00;;;;;;6257075;22;20210;-78
2022/12/02 01:54:02;;;;;;;44.42;28.10;;;3.30;1.00;;;;;;6259398;22;20273;-78
2022/12/02 01:56:32;;;;;;;45.17;28.70;;;3.30;1.00;;;;;;6257977;22;20290;-83
2022/12/02 01:59:04;;;;;;;46.20;30.48;;;3.20;1.00;;;;;;6258031;22;20218;-82
2022/12/02 02:01:33;;;;;;;46.13;29.88;;;3.20;1.00;;;;;;6259142;22;21026;-83
2022/12/02 02:04:03;;;;;;;45.97;30.05;;;3.20;1.00;;;;;;6257661;22;20222;-82
2022/12/02 02:06:40;;;;;;;43.92;30.48;;;3.30;1.00;;;;;;6256705;22;20209;-80
2022/12/02 02:09:09;;;;;;;47.78;30.75;;;3.30;1.00;;;;;;6256651;22;20766;-79
2022/12/02 02:11:41;;;;;;;46.47;28.15;;;3.30;1.00;;;;;;6259148;22;20217;-79
2022/12/02 02:14:14;;;;;;;47.85;29.38;;;3.30;1.00;;;;;;6255268;22;20261;-78
2022/12/02 02:16:42;;;;;;;44.72;29.02;;;3.20;1.00;;;;;;6258636;22;20213;-80
2022/12/02 02:19:20;;;;;;;43.75;27.90;;;3.20;1.00;;;;;;6254899;22;20210;-79
2022/12/02 02:21:52;;;;;;;45.30;30.33;;;3.10;1.00;;;;;;6256885;22;20215;-78
2022/12/02 02:24:23;;;;;;;44.25;29.08;;;3.10;1.00;;;;;;6257487;22;20218;-77
2022/12/02 02:26:50;;;;;;;46.72;28.52;;;3.00;1.00;;;;;;6258708;22;20223;-77
2022/12/02 02:29:22;;;;;;;43.47;28.55;;;2.90;1.00;;;;;;6260269;22;20214;-83
2022/12/02 02:31:54;;;;;;;49.05;28.70;;;2.90;1.00;;;;;;6257733;22;20777;-82
2022/12/02 02:34:24;;;;;;;43.22;27.35;;;3.00;1.00;;;;;;6264991;22;20230;-77
2022/12/02 02:36:56;;;;;;;46.40;28.48;;;2.90;1.00;;;;;;6262288;22;20214;-76
2022/12/02 02:39:27;;;;;;;45.03;28.23;;;2.90;1.00;;;;;;6265863;22;20195;-83
2022/12/02 02:41:57;;;;;;;42.83;27.75;;;2.90;1.00;;;;;;6267495;22;20214;-83
2022/12/02 02:44:26;;;;;;;46.75;28.42;;;2.90;1.00;;;;;;6251786;22;20223;-82
2022/12/02 02:46:56;;;;;;;43.90;27.98;;;2.90;1.00;;;;;;6266095;22;20210;-82
2022/12/02 02:49:27;;;;;;;42.78;26.83;;;2.90;1.00;;;;;;6266353;22;20212;-84
2022/12/02 02:52:00;;;;;;;46.78;28.80;;;2.90;1.00;;;;;;6266480;22;20213;-83
2022/12/02 02:54:32;;;;;;;48.25;29.42;;;2.80;1.00;;;;;;6267984;22;20221;-82
2022/12/02 02:57:02;;;;;;;43.42;27.05;;;2.80;1.00;;;;;;6246996;22;20214;-82
2022/12/02 02:59:30;;;;;;;43.45;29.08;;;2.80;1.00;;;;;;6258496;22;20216;-78
2022/12/02 03:02:06;;;;;;;40.55;26.80;;;2.80;1.00;;;;;;6258647;22;20225;-84
2022/12/02 03:04:38;;;;;;;46.30;29.95;;;2.90;1.00;;;;;;6261419;22;20230;-79
2022/12/02 03:07:05;;;;;;;43.85;28.92;;;2.80;1.00;;;;;;6258141;22;20907;-82
2022/12/02 03:09:47;;;;;;;40.72;27.65;;;2.80;1.00;;;;;;6259495;22;20245;-81
2022/12/02 03:12:20;;;;;;;38.50;24.73;;;2.70;1.00;;;;;;6259153;22;20344;-84
2022/12/02 03:14:47;;;;;;;41.90;27.15;;;2.70;1.00;;;;;;6260509;22;20214;-83
2022/12/02 03:17:19;;;;;;;43.97;26.48;;;2.60;1.00;;;;;;6258485;22;20221;-84
2022/12/02 03:19:47;;;;;;;41.33;27.25;;;2.60;1.00;;;;;;6263858;22;21027;-85
2022/12/02 03:22:18;;;;;;;39.17;26.63;;;2.60;1.00;;;;;;6263053;22;20213;-81
2022/12/02 03:24:47;;;;;;;44.78;27.92;;;2.60;1.00;;;;;;6257708;22;20211;-82
2022/12/02 03:27:14;;;;;;;43.53;27.20;;;2.60;1.00;;;;;;6255050;22;20233;-78
2022/12/02 03:29:42;;;;;;;43.83;27.20;;;2.60;1.00;;;;;;6253725;22;20685;-77
2022/12/02 03:32:12;;;;;;;40.50;25.50;;;2.60;1.00;;;;;;6251838;22;20222;-78
2022/12/02 03:34:41;;;;;;;40.92;25.33;;;2.60;1.00;;;;;;6251866;22;20275;-77
2022/12/02 03:37:09;;;;;;;37.83;25.05;;;2.60;1.00;;;;;;6254171;22;20644;-79
2022/12/02 03:39:42;;;;;;;41.60;25.52;;;2.60;1.00;;;;;;6255490;22;20960;-78
2022/12/02 03:42:11;;;;;;;36.55;23.88;;;2.60;1.00;;;;;;6258064;22;20209;-76
2022/12/02 03:44:39;;;;;;;39.80;25.58;;;2.70;1.00;;;;;;6251301;22;20980;-84
2022/12/02 03:47:12;;;;;;;38.10;24.17;;;2.70;1.00;;;;;;6257876;22;20237;-82
2022/12/02 03:49:40;;;;;;;38.05;24.80;;;2.70;1.00;;;;;;6255834;22;20213;-79
2022/12/02 03:52:09;;;;;;;39.38;25.17;;;2.70;1.00;;;;;;6260257;22;20231;-83
2022/12/02 03:54:38;;;;;;;38.13;23.70;;;2.60;1.00;;;;;;6263311;22;20808;-83
2022/12/02 03:57:11;;;;;;;36.67;22.83;;;2.60;1.00;;;;;;6262168;22;20214;-84
2022/12/02 03:59:41;;;;;;;39.90;24.45;;;2.60;1.00;;;;;;6260738;22;20268;-83
2022/12/02 04:02:09;;;;;;;38.15;24.73;;;2.60;1.00;;;;;;6255706;22;20214;-83
2022/12/02 04:04:36;;;;;;;34.85;23.63;;;2.70;1.00;;;;;;6259111;22;20190;-83
2022/12/02 04:07:03;;;;;;;39.53;25.10;;;2.70;1.00;;;;;;6258903;22;20289;-84
2022/12/02 04:09:30;;;;;;;38.88;23.73;;;2.70;1.00;;;;;;6258857;22;20213;-83
2022/12/02 04:11:59;;;;;;;35.75;22.00;;;2.70;1.00;;;;;;6257717;22;20221;-82
2022/12/02 04:14:28;;;;;;;35.78;23.33;;;2.70;1.00;;;;;;6258071;22;20215;-83
2022/12/02 04:17:04;;;;;;;34.42;23.75;;;2.70;1.00;;;;;;6261422;22;20212;-81
2022/12/02 04:19:31;;;;;;;34.33;22.95;;;2.70;1.00;;;;;;6261673;22;20218;-78
2022/12/02 04:22:00;;;;;;;36.67;23.88;;;2.80;1.00;;;;;;6260646;22;20218;-79
2022/12/02 04:24:31;;;;;;;30.95;22.13;;;2.80;1.00;;;;;;6261158;22;20927;-85
2022/12/02 04:27:00;;;;;;;32.80;21.08;;;2.90;1.00;;;;;;6262450;22;20198;-83
2022/12/02 04:29:28;;;;;;;35.05;22.70;;;2.90;1.00;;;;;;6263198;22;20249;-84
2022/12/02 04:32:00;;;;;;;36.13;26.55;;;2.90;1.00;;;;;;6261685;22;20216;-83
2022/12/02 04:34:27;;;;;;;30.38;20.27;;;2.80;1.00;;;;;;6250870;22;20290;-77
2022/12/02 04:36:58;;;;;;;32.30;21.75;;;2.90;1.00;;;;;;6259274;22;20210;-79
2022/12/02 04:39:26;;;;;;;32.00;22.30;;;2.90;1.00;;;;;;6263676;22;20915;-83
2022/12/02 04:41:55;;;;;;;35.90;22.75;;;2.80;1.00;;;;;;6261324;22;20209;-77
2022/12/02 04:44:23;;;;;;;30.60;22.02;;;2.80;1.00;;;;;;6260614;22;20210;-83
2022/12/02 04:46:51;;;;;;;33.45;22.00;;;2.90;1.00;;;;;;6262521;22;20213;-83
2022/12/02 04:49:20;;;;;;;32.13;22.20;;;3.00;1.00;;;;;;6258888;22;20227;-78
2022/12/02 04:51:47;;;;;;;33.35;20.77;;;3.00;1.00;;;;;;6260466;22;20225;-82
2022/12/02 04:54:22;;;;;;;33.75;21.20;;;2.90;1.00;;;;;;6261002;22;20218;-84
2022/12/02 04:56:49;;;;;;;32.55;21.50;;;2.90;1.00;;;;;;6262282;22;20223;-84
2022/12/02 04:59:20;;;;;;;31.42;20.90;;;2.90;1.00;;;;;;6260466;22;20197;-77
2022/12/02 05:01:47;;;;;;;32.05;22.45;;;2.90;1.00;;;;;;6261565;22;20214;-77
2022/12/02 05:04:20;;;;;;;33.05;22.10;;;2.90;1.00;;;;;;6255647;22;20667;-79
2022/12/02 05:06:47;;;;;;;31.23;21.27;;;2.90;1.00;;;;;;6255040;22;20295;-81
2022/12/02 05:09:18;;;;;;;31.63;21.80;;;2.90;1.00;;;;;;6255123;22;20214;-82
2022/12/02 05:11:45;;;;;;;31.85;21.10;;;2.90;1.00;;;;;;6258379;22;20375;-81
2022/12/02 05:14:13;;;;;;;36.22;22.90;;;2.90;1.00;;;;;;6260881;22;20244;-81
2022/12/02 05:16:40;;;;;;;33.40;20.60;;;2.90;1.00;;;;;;6261809;22;20243;-82
2022/12/02 05:19:07;;;;;;;29.73;20.80;;;2.90;1.00;;;;;;6259175;22;21493;-81
2022/12/02 05:21:46;;;;;;;33.97;21.83;;;2.90;1.00;;;;;;6231339;22;20642;-81
2022/12/02 05:24:18;;;;;;;32.30;20.75;;;2.90;1.00;;;;;;6257503;22;20791;-77
2022/12/02 05:26:45;;;;;;;30.65;20.67;;;2.90;1.00;;;;;;6257476;22;20642;-83
2022/12/02 05:29:12;;;;;;;30.73;20.73;;;2.90;1.00;;;;;;6262314;22;20216;-78
2022/12/02 05:31:41;;;;;;;37.65;23.30;;;2.90;1.00;;;;;;6259711;22;20229;-78
2022/12/02 05:34:08;;;;;;;28.73;17.50;;;3.00;1.00;;;;;;6258275;22;20223;-81
2022/12/02 05:36:42;;;;;;;29.15;19.30;;;3.00;1.00;;;;;;6256248;22;20217;-76
2022/12/02 05:39:09;;;;;;;30.77;19.25;;;3.00;1.00;;;;;;6259324;22;20219;-78
2022/12/02 05:41:41;;;;;;;29.95;19.77;;;2.90;1.00;;;;;;6233399;22;20206;-76
2022/12/02 05:44:22;;;;;;;31.67;20.65;;;2.90;1.00;;;;;;6260980;22;20880;-82
2022/12/02 05:46:52;;;;;;;28.00;18.92;;;2.80;1.00;;;;;;6261427;22;20205;-82
2022/12/02 05:49:23;;;;;;;28.20;19.60;;;2.90;1.00;;;;;;6268313;22;20209;-86
2022/12/02 05:52:02;;;;;;;28.00;18.02;;;2.90;1.00;;;;;;6266563;22;20226;-76
2022/12/02 05:54:32;;;;;;;29.73;18.60;;;2.90;1.00;;;;;;6237333;22;20216;-77
2022/12/02 05:57:22;;;;;;;28.60;19.35;;;3.00;1.00;;;;;;6240379;22;20218;-78
2022/12/02 05:59:49;;;;;;;27.00;17.52;;;3.00;1.00;;;;;;6243370;22;20242;-77
2022/12/02 06:02:26;;;;;;;30.88;18.60;;;3.00;1.00;;;;;;6258157;22;20236;-81
2022/12/02 06:05:00;;;;;;;27.67;18.63;;;2.90;1.00;;;;;;6259808;22;20224;-82
2022/12/02 06:07:29;;;;;;;28.00;18.92;;;3.00;1.00;;;;;;6260600;22;20206;-80
2022/12/02 06:09:59;;;;;;;29.02;19.58;;;3.00;1.00;;;;;;6243762;22;20253;-80
2022/12/02 06:12:33;;;;;;;25.95;18.08;;;3.20;1.00;;;;;;6263777;22;20269;-85
2022/12/02 06:15:03;;;;;;;28.20;19.73;;;3.20;1.00;;;;;;6265178;22;20217;-88
2022/12/02 06:17:30;;;;;;;26.90;19.30;;;3.10;1.00;;;;;;6267573;22;20287;-78
2022/12/02 06:20:01;;;;;;;26.35;18.42;;;3.10;1.00;;;;;;6242192;22;20213;-77
2022/12/02 06:22:33;;;;;;;29.67;21.00;;;3.00;1.00;;;;;;6243811;22;20210;-82
2022/12/02 06:25:10;;;;;;;28.83;18.55;;;3.00;1.00;;;;;;6260983;22;20214;-78
2022/12/02 06:27:41;;;;;;;27.98;18.90;;;3.00;1.00;;;;;;6259586;22;20219;-79
2022/12/02 06:30:20;;;;;;;28.83;18.55;;;3.00;1.00;;;;;;6260829;22;20228;-81
2022/12/02 06:32:53;;;;;;;27.42;18.75;;;3.00;1.00;;;;;;6264471;22;20207;-86
2022/12/02 06:35:39;;;;;;;34.88;22.20;;;3.10;1.00;;;;;;6266703;22;20198;-87
2022/12/02 06:38:23;;;;;;;29.88;20.27;;;3.10;1.00;;;;;;6263510;22;20213;-80
2022/12/02 06:41:02;;;;;;;29.85;20.08;;;3.10;1.00;;;;;;6266077;22;20248;-83
2022/12/02 06:43:33;;;;;;;27.38;18.27;;;3.00;1.00;;;;;;6248006;22;20210;-78
2022/12/02 06:46:09;;;;;;;28.90;19.80;;;3.00;1.00;;;;;;6262043;22;20738;-84
2022/12/02 06:48:42;;;;;;;29.42;20.67;;;3.10;1.00;;;;;;6265849;22;20252;-83
2022/12/02 06:51:21;;;;;;;31.88;19.60;;;3.00;1.00;;;;;;6259683;22;20214;-77
2022/12/02 06:53:53;;;;;;;31.63;20.00;;;3.00;1.00;;;;;;6257429;22;20206;-77
2022/12/02 06:56:22;;;;;;;29.83;19.63;;;3.00;1.00;;;;;;6260802;22;20226;-77
2022/12/02 06:59:08;;;;;;;30.25;19.45;;;3.10;1.00;;;;;;6249382;22;20214;-80
2022/12/02 07:01:40;;;;;;;35.20;20.42;;;3.10;1.00;;;;;;6260874;22;20218;-86
2022/12/02 07:04:32;;;;;;;29.50;19.27;;;3.10;1.00;;;;;;6241881;22;20213;-81
2022/12/02 07:07:10;;;;;;;35.35;21.73;;;3.10;1.00;;;;;;6256809;22;20215;-82
2022/12/02 07:09:42;;;;;;;33.45;20.23;;;3.10;1.00;;;;;;6232542;22;20213;-82
2022/12/02 07:12:25;;;;;;;32.53;20.33;;;3.00;1.00;;;;;;6260228;22;20241;-81
2022/12/02 07:14:59;;;;;;;31.65;19.98;;;3.00;1.00;;;;;;6233050;22;20221;-82
2022/12/02 07:17:30;;;;;;;29.25;19.10;;;2.90;1.00;;;;;;6256589;22;20921;-81
2022/12/02 07:20:28;;;;;;;33.50;21.77;;;3.00;1.00;;;;;;6255153;22;20277;-81
2022/12/02 07:23:01;;;;;;;30.65;19.15;;;3.00;1.00;;;;;;6258483;22;20303;-82
2022/12/02 07:25:40;;;;;;;32.45;19.95;;;3.00;1.00;;;;;;6258489;22;20199;-81
2022/12/02 07:28:22;;;;;;;29.75;19.08;;;3.00;1.00;;;;;;6263180;22;20197;-78
2022/12/02 07:31:02;;;;;;;29.10;19.13;;;3.00;1.00;;;;;;6261636;22;20221;-80
2022/12/02 07:33:29;;;;;;;34.92;20.58;;;3.00;1.00;;;;;;6259899;22;20218;-79
2022/12/02 07:36:08;;;;;;;30.10;18.50;;;3.00;1.00;;;;;;6263891;22;20210;-81
2022/12/02 07:38:41;;;;;;;28.60;18.38;;;3.00;1.00;;;;;;6262762;22;20965;-81
2022/12/02 07:41:09;;;;;;;32.25;21.27;;;3.00;1.00;;;;;;6264782;22;20219;-82
2022/12/02 07:43:47;;;;;;;33.17;20.60;;;3.00;1.00;;;;;;6266561;22;20217;-81
2022/12/02 07:46:15;;;;;;;35.92;23.00;;;3.00;1.00;;;;;;6263172;22;20723;-81
2022/12/02 07:48:52;;;;;;;34.20;20.48;;;3.00;1.00;;;;;;6261442;22;20194;-80
2022/12/02 07:51:21;;;;;;;30.88;20.38;;;2.90;1.00;;;;;;6261603;22;20213;-82
2022/12/02 07:53:48;;;;;;;30.60;19.45;;;2.90;1.00;;;;;;6262640;22;20268;-79
2022/12/02 07:56:21;;;;;;;29.50;18.80;;;2.90;1.00;;;;;;6263993;22;20225;-81
2022/12/02 07:58:49;;;;;;;28.73;18.05;;;2.90;1.00;;;;;;6266694;22;20225;-83
2022/12/02 08:01:21;;;;;;;27.58;16.45;;;2.90;1.00;;;;;;6261813;22;20213;-82
2022/12/02 08:03:54;;;;;;;34.53;19.15;;;2.90;1.00;;;;;;6261996;22;20213;-82
2022/12/02 08:06:23;;;;;;;29.27;19.42;;;2.90;1.00;;;;;;6220016;22;20233;-77
2022/12/02 08:08:51;;;;;;;29.75;18.65;;;2.90;1.00;;;;;;6260952;22;20226;-80
2022/12/02 08:11:23;;;;;;;30.35;18.17;;;3.00;1.00;;;;;;6260129;22;20214;-79
2022/12/02 08:13:50;;;;;;;34.10;21.98;;;2.90;1.00;;;;;;6258915;22;20222;-79
2022/12/02 08:16:25;;;;;;;36.88;25.45;;;3.00;1.00;;;;;;6257730;22;20210;-80
2022/12/02 08:18:53;;;;;;;36.35;26.80;;;3.00;1.00;;;;;;6255092;22;20218;-78
2022/12/02 08:21:20;;;;;;;35.13;22.30;;;3.00;1.00;;;;;;6260974;22;20193;-79
2022/12/02 08:23:55;;;;;;;32.20;19.60;;;2.90;1.00;;;;;;6257716;22;20206;-78
2022/12/02 08:26:27;;;;;;;30.55;18.77;;;2.90;1.00;;;;;;6205734;22;21051;-77
2022/12/02 08:29:01;;;;;;;31.23;19.67;;;2.90;1.00;;;;;;6244985;22;20812;-78
2022/12/02 08:31:28;;;;;;;30.55;18.13;;;2.90;1.00;;;;;;6257988;22;20669;-79
2022/12/02 08:34:00;;;;;;;29.58;18.75;;;3.00;1.00;;;;;;6257775;22;20264;-79
2022/12/02 08:36:28;;;;;;;35.25;22.83;;;3.00;1.00;;;;;;6259926;22;20215;-78
2022/12/02 08:39:01;;;;;;;34.58;20.52;;;2.90;1.00;;;;;;6262507;22;20221;-79
2022/12/02 08:41:44;;;;;;;31.63;18.17;;;2.90;1.00;;;;;;6258472;22;20235;-85
2022/12/02 08:44:13;;;;;;;32.22;19.90;;;2.90;1.00;;;;;;6244844;22;20217;-83
2022/12/02 08:46:53;;;;;;;31.52;20.60;;;3.00;1.00;;;;;;6242449;22;20418;-80
2022/12/02 08:52:30;;;;;;;33.95;18.90;;;2.90;1.00;;;;;;6212419;22;20357;-78
2022/12/02 08:55:04;;;;;;;31.52;19.85;;;3.00;1.00;;;;;;6258692;22;20240;-83
2022/12/02 08:57:32;;;;;;;30.45;19.58;;;3.00;1.00;;;;;;6263823;22;20215;-81
2022/12/02 09:00:01;;;;;;;28.33;17.92;;;3.00;1.00;;;;;;6261122;22;20196;-82
2022/12/02 09:02:30;;;;;;;32.28;21.75;;;3.10;1.00;;;;;;6222148;22;20293;-82
2022/12/02 09:05:01;;;;;;;31.10;18.63;;;3.10;1.00;;;;;;6263769;22;20189;-82
2022/12/02 09:07:28;;;;;;;41.92;21.77;;;3.10;1.00;;;;;;6258633;22;20216;-78
2022/12/02 09:10:01;;;;;;;36.30;21.58;;;3.20;1.00;;;;;;6259191;22;20882;-81
2022/12/02 09:12:28;;;;;;;35.75;20.58;;;3.20;1.00;;;;;;6262364;22;20222;-79
2022/12/02 09:15:04;;;;;;;33.15;19.95;;;3.30;1.00;;;;;;6258267;22;20216;-79
2022/12/02 09:17:32;;;;;;;32.13;20.52;;;3.20;1.00;;;;;;6259228;22;20214;-84
2022/12/02 09:20:02;;;;;;;32.13;19.60;;;3.30;1.00;;;;;;6259987;22;20215;-84
2022/12/02 09:22:29;;;;;;;29.92;18.10;;;3.20;1.00;;;;;;6261341;22;20226;-80
2022/12/02 09:25:10;;;;;;;32.00;19.60;;;3.20;1.00;;;;;;6258166;22;20236;-79
2022/12/02 09:27:41;;;;;;;34.35;20.00;;;3.20;1.00;;;;;;6253553;22;21027;-80
2022/12/02 09:30:24;;;;;;;28.20;18.63;;;3.20;1.00;;;;;;6254170;22;20199;-78
2022/12/02 09:32:51;;;;;;;38.80;22.30;;;3.20;1.00;;;;;;6256870;22;20218;-78
2022/12/02 09:35:21;;;;;;;33.97;19.10;;;3.20;1.00;;;;;;6258742;22;20224;-78
2022/12/02 09:37:48;;;;;;;33.10;20.63;;;3.30;1.00;;;;;;6259102;22;20216;-79
2022/12/02 09:40:20;;;;;;;33.38;19.25;;;3.30;1.00;;;;;;6261875;22;20232;-85
2022/12/02 09:42:50;;;;;;;30.90;19.25;;;3.20;1.00;;;;;;6266099;22;20299;-84
2022/12/02 09:45:23;;;;;;;31.65;19.65;;;3.20;1.00;;;;;;6265129;22;20220;-81
2022/12/02 09:47:52;;;;;;;33.22;20.17;;;3.20;1.00;;;;;;6264253;22;20207;-81
2022/12/02 09:50:23;;;;;;;34.00;19.58;;;3.20;1.00;;;;;;6265695;22;20188;-80
2022/12/02 09:52:50;;;;;;;36.72;23.25;;;3.30;1.00;;;;;;6262668;22;20259;-81
2022/12/02 09:55:21;;;;;;;32.95;20.42;;;3.40;1.00;;;;;;6266557;22;20214;-83
2022/12/02 09:57:48;;;;;;;35.13;19.63;;;3.40;1.00;;;;;;6265035;22;20215;-81
2022/12/02 10:00:21;;;;;;;35.45;21.55;;;3.40;1.00;;;;;;6264037;22;20276;-81
2022/12/02 10:02:53;;;;;;;37.35;21.75;;;3.40;1.00;;;;;;6262331;22;20267;-83
2022/12/02 10:05:26;;;;;;;32.60;20.27;;;3.40;1.00;;;;;;6260518;22;20198;-83
2022/12/02 10:08:03;;;;;;;37.22;20.65;;;3.40;1.00;;;;;;6263477;22;20751;-81
2022/12/02 10:10:44;;;;;;;33.20;19.95;;;3.40;1.00;;;;;;6265981;22;20226;-82
2022/12/02 10:13:13;;;;;;;32.53;20.23;;;3.50;1.00;;;;;;6267176;22;20316;-82
2022/12/02 10:15:42;;;;;;;34.22;20.55;;;3.50;1.00;;;;;;6262510;22;20244;-77
2022/12/02 10:18:21;;;;;;;36.22;21.00;;;3.50;1.00;;;;;;6260308;22;20224;-78
2022/12/02 10:20:50;;;;;;;35.38;20.13;;;3.50;1.00;;;;;;6236811;22;20304;-78
2022/12/02 10:23:22;;;;;;;37.90;22.38;;;3.30;1.00;;;;;;6265216;22;20231;-86
2022/12/02 10:25:53;;;;;;;34.08;20.60;;;3.30;1.00;;;;;;6260651;22;20214;-86
2022/12/02 10:28:25;;;;;;;35.03;20.88;;;3.30;1.00;;;;;;6263339;22;20221;-82
2022/12/02 10:31:03;;;;;;;41.00;23.33;;;3.30;1.00;;;;;;6264017;22;20799;-78
2022/12/02 10:33:34;;;;;;;37.50;21.35;;;3.30;1.00;;;;;;6270900;22;20216;-83
2022/12/02 10:36:02;;;;;;;37.45;21.92;;;3.30;1.00;;;;;;6266710;22;20201;-83
2022/12/02 10:38:32;;;;;;;36.72;22.58;;;3.20;1.00;;;;;;6267521;22;20214;-83
2022/12/02 10:41:32;;;;;;;40.70;24.98;;;3.30;1.00;;;;;;6256624;22;20206;-82
2022/12/02 10:46:43;;;;;;;37.10;23.08;;;3.30;1.00;;;;;;6238258;22;20232;-90
2022/12/02 10:49:53;;;;;;;37.35;22.08;;;3.30;1.00;;;;;;6237028;22;20212;-91
2022/12/02 10:52:33;;;;;;;38.35;22.67;;;3.30;1.00;;;;;;6229268;22;20191;-89
2022/12/02 10:55:21;;;;;;;37.35;22.52;;;3.30;1.00;;;;;;6260700;22;20224;-89
2022/12/02 10:57:54;;;;;;;34.72;22.35;;;3.30;1.00;;;;;;6231422;22;20211;-90
2022/12/02 11:00:35;;;;;;;40.25;22.40;;;3.10;1.00;;;;;;6232411;22;20264;-87
2022/12/02 11:05:53;;;;;;;36.42;23.92;;;3.10;1.00;;;;;;6231356;22;20202;-83
2022/12/02 11:08:33;;;;;;;39.35;22.63;;;3.00;1.00;;;;;;6230141;23;20215;-83
2022/12/02 11:11:17;;;;;;;38.72;24.42;;;3.10;1.00;;;;;;6233525;23;20279;-85
2022/12/02 11:14:02;;;;;;;43.33;23.15;;;3.00;1.00;;;;;;6230499;23;20198;-87
2022/12/02 11:17:10;;;;;;;41.40;24.00;;;3.00;1.00;;;;;;6237601;22;20213;-85
2022/12/02 11:19:45;;;;;;;39.13;23.35;;;3.10;1.00;;;;;;6234193;23;20882;-87
2022/12/02 11:23:05;;;;;;;51.42;27.08;;;3.10;1.00;;;;;;6236332;23;20236;-86
2022/12/02 11:25:53;;;;;;;42.65;24.25;;;3.20;1.00;;;;;;6211669;22;20900;-85
2022/12/02 11:29:00;;;;;;;46.22;26.05;;;3.20;1.00;;;;;;6221026;22;20297;-83
2022/12/02 11:31:32;;;;;;;39.08;24.17;;;3.10;1.00;;;;;;6228992;23;20229;-84
2022/12/02 11:34:34;;;;;;;44.03;23.33;;;3.10;1.00;;;;;;6227562;23;21086;-79
2022/12/02 11:37:36;;;;;;;44.83;23.45;;;3.00;1.00;;;;;;6229962;22;20228;-80
2022/12/02 11:40:33;;;;;;;47.10;26.80;;;3.00;1.00;;;;;;6227020;23;20223;-84
2022/12/02 11:43:34;;;;;;;42.88;26.05;;;3.00;1.00;;;;;;6238783;22;20271;-85
2022/12/02 11:46:04;;;;;;;44.38;25.35;;;2.90;1.00;;;;;;6234744;23;20214;-86
2022/12/02 11:48:33;;;;;;;40.25;26.05;;;2.90;1.00;;;;;;6247409;22;20194;-84
2022/12/02 11:51:23;;;;;;;44.65;26.08;;;2.90;1.00;;;;;;6236620;22;20245;-84
2022/12/02 11:53:52;;;;;;;45.13;26.88;;;2.90;1.00;;;;;;6233357;22;20285;-85
2022/12/02 11:56:27;;;;;;;43.92;26.45;;;2.90;1.00;;;;;;6233578;22;20207;-80
2022/12/02 11:58:54;;;;;;;45.08;27.40;;;2.90;1.00;;;;;;6234907;22;20966;-83
2022/12/02 12:01:22;;;;;;;47.85;26.42;;;2.90;1.00;;;;;;6231367;22;20208;-84
2022/12/02 12:03:53;;;;;;;44.38;24.95;;;2.90;1.00;;;;;;6237147;22;20222;-88
2022/12/02 12:06:30;;;;;;;43.28;25.90;;;2.90;1.00;;;;;;6236124;22;20238;-84
2022/12/02 12:09:33;;;;;;;44.92;26.75;;;2.90;1.00;;;;;;6232814;23;20266;-84
2022/12/02 12:12:21;;;;;;;42.85;25.27;;;2.80;1.00;;;;;;6229553;23;20210;-84
2022/12/02 12:15:02;;;;;;;48.33;28.25;;;2.90;1.00;;;;;;6215586;23;20210;-81
2022/12/02 12:17:44;;;;;;;41.50;25.88;;;2.90;1.00;;;;;;6231543;22;20309;-85
2022/12/02 12:20:43;;;;;;;45.88;27.48;;;2.80;1.00;;;;;;6233020;22;20230;-83
2022/12/02 12:23:30;;;;;;;42.42;25.70;;;2.70;1.00;;;;;;6229494;23;20221;-80
2022/12/02 12:26:06;;;;;;;41.28;26.17;;;2.80;1.00;;;;;;6231042;23;20210;-81
2022/12/02 12:28:42;;;;;;;44.97;26.40;;;2.80;1.00;;;;;;6233656;23;20219;-82
2022/12/02 12:31:11;;;;;;;42.63;26.20;;;2.80;1.00;;;;;;6218017;23;20217;-85
2022/12/02 12:33:44;;;;;;;46.45;26.35;;;2.80;1.00;;;;;;6234075;23;20219;-79
2022/12/02 12:36:13;;;;;;;47.92;26.02;;;2.80;1.00;;;;;;6234379;23;20220;-82
2022/12/02 12:38:44;;;;;;;44.33;25.55;;;2.70;1.00;;;;;;6233549;23;20206;-80
2022/12/02 12:41:12;;;;;;;42.90;26.67;;;2.60;1.00;;;;;;6232648;23;20214;-80
2022/12/02 12:44:03;;;;;;;48.72;28.10;;;2.60;1.00;;;;;;6233156;23;20204;-82
2022/12/02 12:46:34;;;;;;;45.72;26.30;;;2.60;1.00;;;;;;6233461;23;20573;-82
2022/12/02 12:49:04;;;;;;;45.33;26.90;;;2.60;1.00;;;;;;6232569;22;20200;-83
2022/12/02 12:51:35;;;;;;;49.83;27.23;;;2.70;1.00;;;;;;6235960;22;20671;-83
2022/12/02 12:54:22;;;;;;;44.20;25.83;;;2.70;1.00;;;;;;6237047;22;20194;-83
2022/12/02 12:56:51;;;;;;;43.10;24.95;;;2.70;1.00;;;;;;6238105;22;20218;-82
2022/12/02 12:59:34;;;;;;;43.25;25.98;;;2.60;1.00;;;;;;6220145;23;20213;-80
2022/12/02 13:02:31;;;;;;;43.47;24.52;;;2.60;1.00;;;;;;6229568;23;20215;-81
2022/12/02 13:05:02;;;;;;;48.95;25.00;;;2.60;1.00;;;;;;6226815;23;20246;-78
2022/12/02 13:07:32;;;;;;;43.97;25.52;;;2.60;1.00;;;;;;6229784;23;20211;-81
2022/12/02 13:10:12;;;;;;;43.65;24.42;;;2.60;1.00;;;;;;6219895;23;20212;-84
2022/12/02 13:12:45;;;;;;;43.53;23.85;;;2.60;1.00;;;;;;6228987;23;20209;-80
2022/12/02 13:15:14;;;;;;;38.00;23.27;;;2.50;1.00;;;;;;6232047;23;20213;-80
2022/12/02 13:17:42;;;;;;;43.08;24.30;;;2.60;1.00;;;;;;6230406;23;20215;-81
2022/12/02 13:20:13;;;;;;;48.15;26.48;;;2.50;1.00;;;;;;6218346;23;20213;-84
2022/12/02 13:22:42;;;;;;;47.10;27.70;;;2.40;1.00;;;;;;6233088;23;20221;-83
2022/12/02 13:25:12;;;;;;;44.47;25.55;;;2.40;1.00;;;;;;6233197;23;20242;-80
2022/12/02 13:27:42;;;;;;;44.47;24.67;;;2.30;1.00;;;;;;6233658;23;20213;-81
2022/12/02 13:30:21;;;;;;;46.35;26.55;;;2.40;1.00;;;;;;6233108;23;20262;-81